sensor_id;sensor_type;location;lat;lon;timestamp;temperature;humidity
25192;DHT22;13143;50.924;5.320;2023-07-29T00:01:46;21.40;99.90
25192;DHT22;13143;50.924;5.320;2023-07-29T00:04:16;21.40;99.90
25192;DHT22;13143;50.924;5.320;2023-07-29T00:06:42;21.40;99.90
25192;DHT22;13143;50.924;5.320;2023-07-29T00:09:08;21.40;99.90
25192;DHT22;13143;50.924;5.320;2023-07-29T00:11:34;21.40;99.90
25192;DHT22;13143;50.924;5.320;2023-07-29T00:14:01;21.30;99.90
25192;DHT22;13143;50.924;5.320;2023-07-29T00:16:28;21.40;99.90
25192;DHT22;13143;50.924;5.320;2023-07-29T00:18:54;21.40;99.90
25192;DHT22;13143;50.924;5.320;2023-07-29T00:21:20;21.30;99.90
25192;DHT22;13143;50.924;5.320;2023-07-29T00:23:46;21.40;99.90
25192;DHT22;13143;50.924;5.320;2023-07-29T00:26:13;21.40;99.90
25192;DHT22;13143;50.924;5.320;2023-07-29T00:28:39;21.40;99.90
25192;DHT22;13143;50.924;5.320;2023-07-29T00:31:05;21.30;99.90
25192;DHT22;13143;50.924;5.320;2023-07-29T00:33:31;21.30;99.90
25192;DHT22;13143;50.924;5.320;2023-07-29T00:35:57;21.30;99.90
25192;DHT22;13143;50.924;5.320;2023-07-29T00:38:27;21.30;99.90
25192;DHT22;13143;50.924;5.320;2023-07-29T00:40:53;21.30;99.90
25192;DHT22;13143;50.924;5.320;2023-07-29T00:43:20;21.30;99.90
25192;DHT22;13143;50.924;5.320;2023-07-29T00:45:46;21.30;99.90
25192;DHT22;13143;50.924;5.320;2023-07-29T00:48:13;21.30;99.90
25192;DHT22;13143;50.924;5.320;2023-07-29T00:50:40;21.30;99.90
25192;DHT22;13143;50.924;5.320;2023-07-29T00:53:06;21.30;99.90
25192;DHT22;13143;50.924;5.320;2023-07-29T00:55:33;21.30;99.90
25192;DHT22;13143;50.924;5.320;2023-07-29T00:58:00;21.30;99.90
25192;DHT22;13143;50.924;5.320;2023-07-29T01:00:26;21.30;99.90
25192;DHT22;13143;50.924;5.320;2023-07-29T01:02:52;21.20;99.90
25192;DHT22;13143;50.924;5.320;2023-07-29T01:05:20;21.30;99.90
25192;DHT22;13143;50.924;5.320;2023-07-29T01:10:38;21.20;99.90
25192;DHT22;13143;50.924;5.320;2023-07-29T01:13:47;21.20;99.90
25192;DHT22;13143;50.924;5.320;2023-07-29T01:16:38;21.20;99.90
25192;DHT22;13143;50.924;5.320;2023-07-29T01:19:06;21.20;99.90
25192;DHT22;13143;50.924;5.320;2023-07-29T01:21:35;21.20;99.90
25192;DHT22;13143;50.924;5.320;2023-07-29T01:24:03;21.20;99.90
25192;DHT22;13143;50.924;5.320;2023-07-29T01:26:29;21.20;99.90
25192;DHT22;13143;50.924;5.320;2023-07-29T01:28:56;21.20;99.90
25192;DHT22;13143;50.924;5.320;2023-07-29T01:31:32;21.20;99.90
25192;DHT22;13143;50.924;5.320;2023-07-29T01:34:06;21.20;99.90
25192;DHT22;13143;50.924;5.320;2023-07-29T01:36:37;21.20;99.90
25192;DHT22;13143;50.924;5.320;2023-07-29T01:39:06;21.20;99.90
25192;DHT22;13143;50.924;5.320;2023-07-29T01:41:35;21.20;99.90
25192;DHT22;13143;50.924;5.320;2023-07-29T01:44:01;21.20;99.90
25192;DHT22;13143;50.924;5.320;2023-07-29T01:46:28;21.20;99.90
25192;DHT22;13143;50.924;5.320;2023-07-29T01:48:54;21.10;99.90
25192;DHT22;13143;50.924;5.320;2023-07-29T01:51:20;21.20;99.90
25192;DHT22;13143;50.924;5.320;2023-07-29T01:53:47;21.10;99.90
25192;DHT22;13143;50.924;5.320;2023-07-29T01:56:13;21.10;99.90
25192;DHT22;13143;50.924;5.320;2023-07-29T01:58:39;21.10;99.90
25192;DHT22;13143;50.924;5.320;2023-07-29T02:01:05;21.10;99.90
25192;DHT22;13143;50.924;5.320;2023-07-29T02:03:31;21.10;99.90
25192;DHT22;13143;50.924;5.320;2023-07-29T02:05:57;21.10;99.90
25192;DHT22;13143;50.924;5.320;2023-07-29T02:08:24;21.00;99.90
25192;DHT22;13143;50.924;5.320;2023-07-29T02:10:50;21.10;99.90
25192;DHT22;13143;50.924;5.320;2023-07-29T02:13:16;21.10;99.90
25192;DHT22;13143;50.924;5.320;2023-07-29T02:15:42;21.10;99.90
25192;DHT22;13143;50.924;5.320;2023-07-29T02:18:08;21.00;99.90
25192;DHT22;13143;50.924;5.320;2023-07-29T02:20:34;21.00;99.90
25192;DHT22;13143;50.924;5.320;2023-07-29T02:23:00;21.00;99.90
25192;DHT22;13143;50.924;5.320;2023-07-29T02:25:27;21.00;99.90
25192;DHT22;13143;50.924;5.320;2023-07-29T02:27:53;21.00;99.90
25192;DHT22;13143;50.924;5.320;2023-07-29T02:30:20;20.90;99.90
25192;DHT22;13143;50.924;5.320;2023-07-29T02:32:47;21.00;99.90
25192;DHT22;13143;50.924;5.320;2023-07-29T02:35:13;20.90;99.90
25192;DHT22;13143;50.924;5.320;2023-07-29T02:37:39;20.90;99.90
25192;DHT22;13143;50.924;5.320;2023-07-29T02:40:05;20.90;99.90
25192;DHT22;13143;50.924;5.320;2023-07-29T02:42:32;20.90;99.90
25192;DHT22;13143;50.924;5.320;2023-07-29T02:44:58;20.90;99.90
25192;DHT22;13143;50.924;5.320;2023-07-29T02:47:24;20.90;99.90
25192;DHT22;13143;50.924;5.320;2023-07-29T02:49:50;20.80;99.90
25192;DHT22;13143;50.924;5.320;2023-07-29T02:52:17;20.80;99.90
25192;DHT22;13143;50.924;5.320;2023-07-29T02:54:43;20.80;99.90
25192;DHT22;13143;50.924;5.320;2023-07-29T02:57:09;20.80;99.90
25192;DHT22;13143;50.924;5.320;2023-07-29T02:59:35;20.80;99.90
25192;DHT22;13143;50.924;5.320;2023-07-29T03:02:01;20.80;99.90
25192;DHT22;13143;50.924;5.320;2023-07-29T03:04:28;20.70;99.90
25192;DHT22;13143;50.924;5.320;2023-07-29T03:06:54;20.70;99.90
25192;DHT22;13143;50.924;5.320;2023-07-29T03:09:20;20.70;99.90
25192;DHT22;13143;50.924;5.320;2023-07-29T03:11:46;20.70;99.90
25192;DHT22;13143;50.924;5.320;2023-07-29T03:14:12;20.70;99.90
25192;DHT22;13143;50.924;5.320;2023-07-29T03:16:38;20.60;99.90
25192;DHT22;13143;50.924;5.320;2023-07-29T03:19:04;20.60;99.90
25192;DHT22;13143;50.924;5.320;2023-07-29T03:21:32;20.60;99.90
25192;DHT22;13143;50.924;5.320;2023-07-29T03:23:58;20.60;99.90
25192;DHT22;13143;50.924;5.320;2023-07-29T03:26:24;20.60;99.90
25192;DHT22;13143;50.924;5.320;2023-07-29T03:28:51;20.50;99.90
25192;DHT22;13143;50.924;5.320;2023-07-29T03:31:17;20.50;99.90
25192;DHT22;13143;50.924;5.320;2023-07-29T03:33:43;20.50;99.90
25192;DHT22;13143;50.924;5.320;2023-07-29T03:36:12;20.50;99.90
25192;DHT22;13143;50.924;5.320;2023-07-29T03:38:38;20.50;99.90
25192;DHT22;13143;50.924;5.320;2023-07-29T03:41:09;20.40;99.90
25192;DHT22;13143;50.924;5.320;2023-07-29T03:43:35;20.50;99.90
25192;DHT22;13143;50.924;5.320;2023-07-29T03:46:01;20.40;99.90
25192;DHT22;13143;50.924;5.320;2023-07-29T03:48:27;20.40;99.90
25192;DHT22;13143;50.924;5.320;2023-07-29T03:50:53;20.40;99.90
25192;DHT22;13143;50.924;5.320;2023-07-29T03:53:20;20.40;99.90
25192;DHT22;13143;50.924;5.320;2023-07-29T03:55:46;20.30;99.90
25192;DHT22;13143;50.924;5.320;2023-07-29T03:58:13;20.30;99.90
25192;DHT22;13143;50.924;5.320;2023-07-29T04:00:39;20.30;99.90
25192;DHT22;13143;50.924;5.320;2023-07-29T04:03:05;20.30;99.90
25192;DHT22;13143;50.924;5.320;2023-07-29T04:05:31;20.30;99.90
25192;DHT22;13143;50.924;5.320;2023-07-29T04:07:57;20.30;99.90
25192;DHT22;13143;50.924;5.320;2023-07-29T04:10:23;20.30;99.90
25192;DHT22;13143;50.924;5.320;2023-07-29T04:12:50;20.20;99.90
25192;DHT22;13143;50.924;5.320;2023-07-29T04:15:16;20.20;99.90
25192;DHT22;13143;50.924;5.320;2023-07-29T04:17:42;20.20;99.90
25192;DHT22;13143;50.924;5.320;2023-07-29T04:20:09;20.20;99.90
25192;DHT22;13143;50.924;5.320;2023-07-29T04:22:36;20.20;99.90
25192;DHT22;13143;50.924;5.320;2023-07-29T04:25:02;20.20;99.90
25192;DHT22;13143;50.924;5.320;2023-07-29T04:27:30;20.20;99.90
25192;DHT22;13143;50.924;5.320;2023-07-29T04:29:57;20.10;99.90
25192;DHT22;13143;50.924;5.320;2023-07-29T04:32:23;20.10;99.90
25192;DHT22;13143;50.924;5.320;2023-07-29T04:34:49;20.10;99.90
25192;DHT22;13143;50.924;5.320;2023-07-29T04:37:15;20.10;99.90
25192;DHT22;13143;50.924;5.320;2023-07-29T04:39:41;20.10;99.90
25192;DHT22;13143;50.924;5.320;2023-07-29T04:42:07;20.10;99.90
25192;DHT22;13143;50.924;5.320;2023-07-29T04:44:33;20.10;99.90
25192;DHT22;13143;50.924;5.320;2023-07-29T04:46:59;20.00;99.90
25192;DHT22;13143;50.924;5.320;2023-07-29T04:49:25;20.00;99.90
25192;DHT22;13143;50.924;5.320;2023-07-29T04:51:52;20.00;99.90
25192;DHT22;13143;50.924;5.320;2023-07-29T04:54:18;20.00;99.90
25192;DHT22;13143;50.924;5.320;2023-07-29T04:56:46;20.00;99.90
25192;DHT22;13143;50.924;5.320;2023-07-29T04:59:13;20.00;99.90
25192;DHT22;13143;50.924;5.320;2023-07-29T05:01:39;20.00;99.90
25192;DHT22;13143;50.924;5.320;2023-07-29T05:04:05;20.00;99.90
25192;DHT22;13143;50.924;5.320;2023-07-29T05:06:31;19.90;99.90
25192;DHT22;13143;50.924;5.320;2023-07-29T05:08:57;19.90;99.90
25192;DHT22;13143;50.924;5.320;2023-07-29T05:11:24;19.90;99.90
25192;DHT22;13143;50.924;5.320;2023-07-29T05:13:51;19.90;99.90
25192;DHT22;13143;50.924;5.320;2023-07-29T05:16:17;19.90;99.90
25192;DHT22;13143;50.924;5.320;2023-07-29T05:18:43;19.90;99.90
25192;DHT22;13143;50.924;5.320;2023-07-29T05:21:09;19.80;99.90
25192;DHT22;13143;50.924;5.320;2023-07-29T05:23:37;19.90;99.90
25192;DHT22;13143;50.924;5.320;2023-07-29T05:26:03;19.80;99.90
25192;DHT22;13143;50.924;5.320;2023-07-29T05:28:29;19.90;99.90
25192;DHT22;13143;50.924;5.320;2023-07-29T05:30:55;19.80;99.90
25192;DHT22;13143;50.924;5.320;2023-07-29T05:33:21;19.80;99.90
25192;DHT22;13143;50.924;5.320;2023-07-29T05:35:47;19.80;99.90
25192;DHT22;13143;50.924;5.320;2023-07-29T05:38:13;19.80;99.90
25192;DHT22;13143;50.924;5.320;2023-07-29T05:40:39;19.80;99.90
25192;DHT22;13143;50.924;5.320;2023-07-29T05:43:06;19.80;99.90
25192;DHT22;13143;50.924;5.320;2023-07-29T05:45:32;19.80;99.90
25192;DHT22;13143;50.924;5.320;2023-07-29T05:47:58;19.80;99.90
25192;DHT22;13143;50.924;5.320;2023-07-29T05:50:24;19.80;99.90
25192;DHT22;13143;50.924;5.320;2023-07-29T05:52:50;19.80;99.90
25192;DHT22;13143;50.924;5.320;2023-07-29T05:55:16;19.80;99.90
25192;DHT22;13143;50.924;5.320;2023-07-29T05:57:43;19.80;99.90
25192;DHT22;13143;50.924;5.320;2023-07-29T06:00:09;19.80;99.90
25192;DHT22;13143;50.924;5.320;2023-07-29T06:02:35;19.70;99.90
25192;DHT22;13143;50.924;5.320;2023-07-29T06:05:01;19.70;99.90
25192;DHT22;13143;50.924;5.320;2023-07-29T06:07:29;19.70;99.90
25192;DHT22;13143;50.924;5.320;2023-07-29T06:09:56;19.70;99.90
25192;DHT22;13143;50.924;5.320;2023-07-29T06:12:23;19.70;99.90
25192;DHT22;13143;50.924;5.320;2023-07-29T06:14:50;19.70;99.90
25192;DHT22;13143;50.924;5.320;2023-07-29T06:17:16;19.70;99.90
25192;DHT22;13143;50.924;5.320;2023-07-29T06:19:42;19.70;99.90
25192;DHT22;13143;50.924;5.320;2023-07-29T06:22:09;19.70;99.90
25192;DHT22;13143;50.924;5.320;2023-07-29T06:24:36;19.70;99.90
25192;DHT22;13143;50.924;5.320;2023-07-29T06:27:02;19.80;99.90
25192;DHT22;13143;50.924;5.320;2023-07-29T06:29:28;19.70;99.90
25192;DHT22;13143;50.924;5.320;2023-07-29T06:31:54;19.80;99.90
25192;DHT22;13143;50.924;5.320;2023-07-29T06:34:21;19.80;99.90
25192;DHT22;13143;50.924;5.320;2023-07-29T06:36:47;19.80;99.90
25192;DHT22;13143;50.924;5.320;2023-07-29T06:39:14;19.80;99.90
25192;DHT22;13143;50.924;5.320;2023-07-29T06:41:40;19.80;99.90
25192;DHT22;13143;50.924;5.320;2023-07-29T06:44:06;19.80;99.90
25192;DHT22;13143;50.924;5.320;2023-07-29T06:46:32;19.80;99.90
25192;DHT22;13143;50.924;5.320;2023-07-29T06:48:58;19.80;99.90
25192;DHT22;13143;50.924;5.320;2023-07-29T06:51:24;19.80;99.90
25192;DHT22;13143;50.924;5.320;2023-07-29T06:53:50;19.80;99.90
25192;DHT22;13143;50.924;5.320;2023-07-29T06:56:16;19.80;99.90
25192;DHT22;13143;50.924;5.320;2023-07-29T06:58:43;19.80;99.90
25192;DHT22;13143;50.924;5.320;2023-07-29T07:01:09;19.80;99.90
25192;DHT22;13143;50.924;5.320;2023-07-29T07:03:35;19.80;99.90
25192;DHT22;13143;50.924;5.320;2023-07-29T07:06:01;19.80;99.90
25192;DHT22;13143;50.924;5.320;2023-07-29T07:08:27;19.90;99.90
25192;DHT22;13143;50.924;5.320;2023-07-29T07:10:53;19.90;99.90
25192;DHT22;13143;50.924;5.320;2023-07-29T07:13:19;19.90;99.90
25192;DHT22;13143;50.924;5.320;2023-07-29T07:15:46;19.90;99.90
25192;DHT22;13143;50.924;5.320;2023-07-29T07:18:12;19.90;99.90
25192;DHT22;13143;50.924;5.320;2023-07-29T07:20:38;19.90;99.90
25192;DHT22;13143;50.924;5.320;2023-07-29T07:23:04;19.90;99.90
25192;DHT22;13143;50.924;5.320;2023-07-29T07:25:31;19.90;99.90
25192;DHT22;13143;50.924;5.320;2023-07-29T07:27:57;20.00;99.90
25192;DHT22;13143;50.924;5.320;2023-07-29T07:30:24;20.00;99.90
25192;DHT22;13143;50.924;5.320;2023-07-29T07:32:50;20.00;99.90
25192;DHT22;13143;50.924;5.320;2023-07-29T07:35:16;20.00;99.90
25192;DHT22;13143;50.924;5.320;2023-07-29T07:37:42;20.00;99.90
25192;DHT22;13143;50.924;5.320;2023-07-29T07:40:09;20.00;99.90
25192;DHT22;13143;50.924;5.320;2023-07-29T07:42:35;20.00;99.90
25192;DHT22;13143;50.924;5.320;2023-07-29T07:45:01;20.10;99.90
25192;DHT22;13143;50.924;5.320;2023-07-29T07:47:27;20.10;99.90
25192;DHT22;13143;50.924;5.320;2023-07-29T07:49:53;20.10;99.90
25192;DHT22;13143;50.924;5.320;2023-07-29T07:52:19;20.10;99.90
25192;DHT22;13143;50.924;5.320;2023-07-29T07:54:45;20.10;99.90
25192;DHT22;13143;50.924;5.320;2023-07-29T07:57:12;20.10;99.90
25192;DHT22;13143;50.924;5.320;2023-07-29T07:59:38;20.20;99.90
25192;DHT22;13143;50.924;5.320;2023-07-29T08:02:04;20.20;99.90
25192;DHT22;13143;50.924;5.320;2023-07-29T08:04:30;20.20;99.90
25192;DHT22;13143;50.924;5.320;2023-07-29T08:06:56;20.20;99.90
25192;DHT22;13143;50.924;5.320;2023-07-29T08:09:23;20.20;99.90
25192;DHT22;13143;50.924;5.320;2023-07-29T08:11:49;20.20;99.90
25192;DHT22;13143;50.924;5.320;2023-07-29T08:14:15;20.20;99.90
25192;DHT22;13143;50.924;5.320;2023-07-29T08:16:41;20.20;99.90
25192;DHT22;13143;50.924;5.320;2023-07-29T08:19:07;20.30;99.90
25192;DHT22;13143;50.924;5.320;2023-07-29T08:21:35;20.30;99.90
25192;DHT22;13143;50.924;5.320;2023-07-29T08:24:02;20.30;99.90
25192;DHT22;13143;50.924;5.320;2023-07-29T08:26:29;20.30;99.90
25192;DHT22;13143;50.924;5.320;2023-07-29T08:28:55;20.30;99.90
25192;DHT22;13143;50.924;5.320;2023-07-29T08:31:21;20.30;99.90
25192;DHT22;13143;50.924;5.320;2023-07-29T08:33:47;20.40;99.90
25192;DHT22;13143;50.924;5.320;2023-07-29T08:36:14;20.40;99.90
25192;DHT22;13143;50.924;5.320;2023-07-29T08:38:40;20.40;99.90
25192;DHT22;13143;50.924;5.320;2023-07-29T08:41:14;20.40;99.90
25192;DHT22;13143;50.924;5.320;2023-07-29T08:44:30;20.40;99.90
25192;DHT22;13143;50.924;5.320;2023-07-29T08:46:30;20.40;99.90
25192;DHT22;13143;50.924;5.320;2023-07-29T08:48:57;20.50;99.90
25192;DHT22;13143;50.924;5.320;2023-07-29T08:51:25;20.50;99.90
25192;DHT22;13143;50.924;5.320;2023-07-29T08:53:53;20.50;99.90
25192;DHT22;13143;50.924;5.320;2023-07-29T08:56:19;20.50;99.90
25192;DHT22;13143;50.924;5.320;2023-07-29T08:58:45;20.60;99.90
25192;DHT22;13143;50.924;5.320;2023-07-29T09:01:12;20.60;99.90
25192;DHT22;13143;50.924;5.320;2023-07-29T09:03:38;20.60;99.90
25192;DHT22;13143;50.924;5.320;2023-07-29T09:06:05;20.60;99.90
25192;DHT22;13143;50.924;5.320;2023-07-29T09:08:32;20.70;99.90
25192;DHT22;13143;50.924;5.320;2023-07-29T09:10:59;20.70;99.90
25192;DHT22;13143;50.924;5.320;2023-07-29T09:13:26;20.70;99.90
25192;DHT22;13143;50.924;5.320;2023-07-29T09:15:56;20.70;99.90
25192;DHT22;13143;50.924;5.320;2023-07-29T09:18:26;20.80;99.90
25192;DHT22;13143;50.924;5.320;2023-07-29T09:20:53;20.80;99.90
25192;DHT22;13143;50.924;5.320;2023-07-29T09:23:19;20.80;99.90
25192;DHT22;13143;50.924;5.320;2023-07-29T09:25:48;20.80;99.90
25192;DHT22;13143;50.924;5.320;2023-07-29T09:28:16;20.80;99.90
25192;DHT22;13143;50.924;5.320;2023-07-29T09:30:45;20.90;99.90
25192;DHT22;13143;50.924;5.320;2023-07-29T09:33:11;20.90;99.90
25192;DHT22;13143;50.924;5.320;2023-07-29T09:35:38;20.90;99.90
25192;DHT22;13143;50.924;5.320;2023-07-29T09:38:05;20.90;99.90
25192;DHT22;13143;50.924;5.320;2023-07-29T09:40:37;20.90;99.90
25192;DHT22;13143;50.924;5.320;2023-07-29T09:43:05;21.00;99.90
25192;DHT22;13143;50.924;5.320;2023-07-29T09:45:34;21.00;99.90
25192;DHT22;13143;50.924;5.320;2023-07-29T09:48:01;21.00;99.90
25192;DHT22;13143;50.924;5.320;2023-07-29T09:50:28;21.00;99.90
25192;DHT22;13143;50.924;5.320;2023-07-29T09:52:55;21.00;99.90
25192;DHT22;13143;50.924;5.320;2023-07-29T09:55:22;21.10;99.90
25192;DHT22;13143;50.924;5.320;2023-07-29T09:57:57;21.10;99.90
25192;DHT22;13143;50.924;5.320;2023-07-29T10:00:28;21.10;99.90
25192;DHT22;13143;50.924;5.320;2023-07-29T10:02:56;21.10;99.90
25192;DHT22;13143;50.924;5.320;2023-07-29T10:05:25;21.20;99.90
25192;DHT22;13143;50.924;5.320;2023-07-29T10:07:51;21.20;99.90
25192;DHT22;13143;50.924;5.320;2023-07-29T10:10:18;21.20;99.90
25192;DHT22;13143;50.924;5.320;2023-07-29T10:12:44;21.20;99.90
25192;DHT22;13143;50.924;5.320;2023-07-29T10:15:11;21.30;99.90
25192;DHT22;13143;50.924;5.320;2023-07-29T10:17:38;21.30;99.90
25192;DHT22;13143;50.924;5.320;2023-07-29T10:20:06;21.30;99.90
25192;DHT22;13143;50.924;5.320;2023-07-29T10:22:41;21.40;99.90
25192;DHT22;13143;50.924;5.320;2023-07-29T10:28:08;21.40;99.90
25192;DHT22;13143;50.924;5.320;2023-07-29T10:30:34;21.40;99.90
25192;DHT22;13143;50.924;5.320;2023-07-29T10:33:04;21.50;99.90
25192;DHT22;13143;50.924;5.320;2023-07-29T10:35:33;21.50;99.90
25192;DHT22;13143;50.924;5.320;2023-07-29T10:38:01;21.50;99.90
25192;DHT22;13143;50.924;5.320;2023-07-29T10:40:44;21.60;99.90
25192;DHT22;13143;50.924;5.320;2023-07-29T10:43:12;21.60;99.90
25192;DHT22;13143;50.924;5.320;2023-07-29T10:45:41;21.60;99.90
25192;DHT22;13143;50.924;5.320;2023-07-29T10:48:13;21.70;99.90
25192;DHT22;13143;50.924;5.320;2023-07-29T10:50:39;21.60;99.90
25192;DHT22;13143;50.924;5.320;2023-07-29T10:53:05;21.70;99.90
25192;DHT22;13143;50.924;5.320;2023-07-29T10:55:36;21.70;99.90
25192;DHT22;13143;50.924;5.320;2023-07-29T10:58:15;21.80;99.90
25192;DHT22;13143;50.924;5.320;2023-07-29T11:00:44;21.80;99.90
25192;DHT22;13143;50.924;5.320;2023-07-29T11:03:13;21.80;99.90
25192;DHT22;13143;50.924;5.320;2023-07-29T11:05:48;21.80;99.90
25192;DHT22;13143;50.924;5.320;2023-07-29T11:11:12;21.90;99.90
25192;DHT22;13143;50.924;5.320;2023-07-29T11:13:38;21.90;99.90
25192;DHT22;13143;50.924;5.320;2023-07-29T11:16:05;21.90;99.90
25192;DHT22;13143;50.924;5.320;2023-07-29T11:18:33;21.90;99.90
25192;DHT22;13143;50.924;5.320;2023-07-29T11:21:01;21.90;99.90
25192;DHT22;13143;50.924;5.320;2023-07-29T11:23:35;21.90;99.90
25192;DHT22;13143;50.924;5.320;2023-07-29T11:26:02;21.90;99.90
25192;DHT22;13143;50.924;5.320;2023-07-29T11:28:29;22.00;99.90
25192;DHT22;13143;50.924;5.320;2023-07-29T11:30:56;22.00;99.90
25192;DHT22;13143;50.924;5.320;2023-07-29T11:33:24;22.00;99.90
25192;DHT22;13143;50.924;5.320;2023-07-29T11:35:51;22.00;99.90
25192;DHT22;13143;50.924;5.320;2023-07-29T11:38:19;22.00;99.90
25192;DHT22;13143;50.924;5.320;2023-07-29T11:41:01;22.00;99.90
25192;DHT22;13143;50.924;5.320;2023-07-29T11:43:35;22.00;99.90
25192;DHT22;13143;50.924;5.320;2023-07-29T11:46:01;22.00;99.90
25192;DHT22;13143;50.924;5.320;2023-07-29T11:48:33;22.00;99.90
25192;DHT22;13143;50.924;5.320;2023-07-29T11:50:59;22.00;99.90
25192;DHT22;13143;50.924;5.320;2023-07-29T11:53:28;22.00;99.90
25192;DHT22;13143;50.924;5.320;2023-07-29T11:55:56;22.00;99.90
25192;DHT22;13143;50.924;5.320;2023-07-29T11:58:22;22.00;99.90
25192;DHT22;13143;50.924;5.320;2023-07-29T12:00:49;22.00;99.90
25192;DHT22;13143;50.924;5.320;2023-07-29T12:03:16;22.00;99.90
25192;DHT22;13143;50.924;5.320;2023-07-29T12:05:44;22.00;99.90
25192;DHT22;13143;50.924;5.320;2023-07-29T12:08:10;21.90;99.90
25192;DHT22;13143;50.924;5.320;2023-07-29T12:10:37;21.90;99.90
25192;DHT22;13143;50.924;5.320;2023-07-29T12:13:03;21.90;99.90
25192;DHT22;13143;50.924;5.320;2023-07-29T12:15:30;21.90;99.90
25192;DHT22;13143;50.924;5.320;2023-07-29T12:17:57;21.90;99.90
25192;DHT22;13143;50.924;5.320;2023-07-29T12:20:24;21.90;99.90
25192;DHT22;13143;50.924;5.320;2023-07-29T12:22:57;21.90;99.90
25192;DHT22;13143;50.924;5.320;2023-07-29T12:25:24;21.90;99.90
25192;DHT22;13143;50.924;5.320;2023-07-29T12:27:51;21.90;99.90
25192;DHT22;13143;50.924;5.320;2023-07-29T12:30:21;21.90;99.90
25192;DHT22;13143;50.924;5.320;2023-07-29T12:32:48;21.90;99.90
25192;DHT22;13143;50.924;5.320;2023-07-29T12:35:14;21.80;99.90
25192;DHT22;13143;50.924;5.320;2023-07-29T12:37:41;21.80;99.90
25192;DHT22;13143;50.924;5.320;2023-07-29T12:40:21;21.80;99.90
25192;DHT22;13143;50.924;5.320;2023-07-29T12:42:48;21.80;99.90
25192;DHT22;13143;50.924;5.320;2023-07-29T12:45:15;21.80;99.90
25192;DHT22;13143;50.924;5.320;2023-07-29T12:47:42;21.70;99.90
25192;DHT22;13143;50.924;5.320;2023-07-29T12:50:08;21.70;99.90
25192;DHT22;13143;50.924;5.320;2023-07-29T12:52:34;21.70;99.90
25192;DHT22;13143;50.924;5.320;2023-07-29T12:55:00;21.70;99.90
25192;DHT22;13143;50.924;5.320;2023-07-29T12:57:27;21.70;99.90
25192;DHT22;13143;50.924;5.320;2023-07-29T12:59:53;21.70;99.90
25192;DHT22;13143;50.924;5.320;2023-07-29T13:02:19;21.70;99.90
25192;DHT22;13143;50.924;5.320;2023-07-29T13:04:45;21.70;99.90
25192;DHT22;13143;50.924;5.320;2023-07-29T13:07:11;21.70;99.90
25192;DHT22;13143;50.924;5.320;2023-07-29T13:09:37;21.70;99.90
25192;DHT22;13143;50.924;5.320;2023-07-29T13:12:04;21.70;99.90
25192;DHT22;13143;50.924;5.320;2023-07-29T13:14:30;21.70;99.90
25192;DHT22;13143;50.924;5.320;2023-07-29T13:16:56;21.70;99.90
25192;DHT22;13143;50.924;5.320;2023-07-29T13:19:22;21.70;99.90
25192;DHT22;13143;50.924;5.320;2023-07-29T13:21:49;21.70;99.90
25192;DHT22;13143;50.924;5.320;2023-07-29T13:24:15;21.70;99.90
25192;DHT22;13143;50.924;5.320;2023-07-29T13:26:41;21.70;99.90
25192;DHT22;13143;50.924;5.320;2023-07-29T13:29:08;21.70;99.90
25192;DHT22;13143;50.924;5.320;2023-07-29T13:31:34;21.70;99.90
25192;DHT22;13143;50.924;5.320;2023-07-29T13:34:00;21.70;99.90
25192;DHT22;13143;50.924;5.320;2023-07-29T13:36:26;21.80;99.90
25192;DHT22;13143;50.924;5.320;2023-07-29T13:38:53;21.70;99.90
25192;DHT22;13143;50.924;5.320;2023-07-29T13:41:19;21.70;99.90
25192;DHT22;13143;50.924;5.320;2023-07-29T13:43:45;21.70;99.90
25192;DHT22;13143;50.924;5.320;2023-07-29T13:46:11;21.70;99.90
25192;DHT22;13143;50.924;5.320;2023-07-29T13:48:37;21.80;99.90
25192;DHT22;13143;50.924;5.320;2023-07-29T13:51:07;21.80;99.90
25192;DHT22;13143;50.924;5.320;2023-07-29T13:53:33;21.70;99.90
25192;DHT22;13143;50.924;5.320;2023-07-29T13:55:59;21.80;99.90
25192;DHT22;13143;50.924;5.320;2023-07-29T13:58:25;21.80;99.90
25192;DHT22;13143;50.924;5.320;2023-07-29T14:00:52;21.80;99.90
25192;DHT22;13143;50.924;5.320;2023-07-29T14:03:18;21.80;99.90
25192;DHT22;13143;50.924;5.320;2023-07-29T14:05:44;21.80;99.90
25192;DHT22;13143;50.924;5.320;2023-07-29T14:08:10;21.80;99.90
25192;DHT22;13143;50.924;5.320;2023-07-29T14:10:36;21.80;99.90
25192;DHT22;13143;50.924;5.320;2023-07-29T14:13:02;21.80;99.90
25192;DHT22;13143;50.924;5.320;2023-07-29T14:15:29;21.90;99.90
25192;DHT22;13143;50.924;5.320;2023-07-29T14:17:55;21.90;99.90
25192;DHT22;13143;50.924;5.320;2023-07-29T14:20:21;21.90;99.90
25192;DHT22;13143;50.924;5.320;2023-07-29T14:22:47;21.90;99.90
25192;DHT22;13143;50.924;5.320;2023-07-29T14:25:14;21.90;99.90
25192;DHT22;13143;50.924;5.320;2023-07-29T14:27:40;21.90;99.90
25192;DHT22;13143;50.924;5.320;2023-07-29T14:30:07;22.00;99.90
25192;DHT22;13143;50.924;5.320;2023-07-29T14:32:33;22.00;99.90
25192;DHT22;13143;50.924;5.320;2023-07-29T14:35:00;22.00;99.90
25192;DHT22;13143;50.924;5.320;2023-07-29T14:37:30;22.00;99.90
25192;DHT22;13143;50.924;5.320;2023-07-29T14:39:58;22.00;99.90
25192;DHT22;13143;50.924;5.320;2023-07-29T14:42:24;22.00;99.90
25192;DHT22;13143;50.924;5.320;2023-07-29T14:44:50;22.10;99.90
25192;DHT22;13143;50.924;5.320;2023-07-29T14:47:16;22.10;99.90
25192;DHT22;13143;50.924;5.320;2023-07-29T14:49:44;22.10;99.90
25192;DHT22;13143;50.924;5.320;2023-07-29T14:52:10;22.10;99.90
25192;DHT22;13143;50.924;5.320;2023-07-29T14:54:36;22.20;99.90
25192;DHT22;13143;50.924;5.320;2023-07-29T14:57:04;22.20;99.90
25192;DHT22;13143;50.924;5.320;2023-07-29T14:59:30;22.20;99.90
25192;DHT22;13143;50.924;5.320;2023-07-29T15:01:56;22.20;99.90
25192;DHT22;13143;50.924;5.320;2023-07-29T15:04:23;22.20;99.90
25192;DHT22;13143;50.924;5.320;2023-07-29T15:06:50;22.20;99.90
25192;DHT22;13143;50.924;5.320;2023-07-29T15:09:17;22.20;99.90
25192;DHT22;13143;50.924;5.320;2023-07-29T15:11:43;22.30;99.90
25192;DHT22;13143;50.924;5.320;2023-07-29T15:14:09;22.30;99.90
25192;DHT22;13143;50.924;5.320;2023-07-29T15:16:35;22.30;99.90
25192;DHT22;13143;50.924;5.320;2023-07-29T15:19:03;22.30;99.90
25192;DHT22;13143;50.924;5.320;2023-07-29T15:21:32;22.30;99.90
25192;DHT22;13143;50.924;5.320;2023-07-29T15:24:01;22.30;99.90
25192;DHT22;13143;50.924;5.320;2023-07-29T15:26:27;22.30;99.90
25192;DHT22;13143;50.924;5.320;2023-07-29T15:28:54;22.30;99.90
25192;DHT22;13143;50.924;5.320;2023-07-29T15:31:20;22.40;99.90
25192;DHT22;13143;50.924;5.320;2023-07-29T15:33:46;22.40;99.90
25192;DHT22;13143;50.924;5.320;2023-07-29T15:36:12;22.40;99.90
25192;DHT22;13143;50.924;5.320;2023-07-29T15:38:38;22.40;99.90